createdAt,value
2022-07-29T00:01:19.159Z,102104.56
2022-07-29T00:03:47.688Z,102101.16
2022-07-29T00:06:15.623Z,102107.56
2022-07-29T00:08:42.886Z,102113.84
2022-07-29T00:11:10.335Z,102104.03
2022-07-29T00:13:37.597Z,102106.63
2022-07-29T00:16:05.364Z,102112.31
2022-07-29T00:18:33.252Z,102107.13
2022-07-29T00:21:01.025Z,102113.84
2022-07-29T00:23:28.295Z,102117.31
2022-07-29T00:25:55.630Z,102122.75
2022-07-29T00:28:22.844Z,102127.53
2022-07-29T00:30:50.271Z,102130.84
2022-07-29T00:33:17.658Z,102131.50
2022-07-29T00:35:44.965Z,102128.91
2022-07-29T00:38:12.900Z,102137.34
2022-07-29T00:40:40.660Z,102143.22
2022-07-29T00:43:12.224Z,102137.53
2022-07-29T00:45:39.579Z,102144.22
2022-07-29T00:48:08.012Z,102137.44
2022-07-29T00:50:35.957Z,102143.66
2022-07-29T00:53:04.385Z,102144.31
2022-07-29T00:55:31.749Z,102141.25
2022-07-29T00:57:59.555Z,102148.66
2022-07-29T01:00:28.014Z,102145.41
2022-07-29T01:02:55.425Z,102141.47
2022-07-29T01:05:23.386Z,102147.59
2022-07-29T01:07:53.708Z,102139.13
2022-07-29T01:10:22.229Z,102142.00
2022-07-29T01:12:50.651Z,102142.56
2022-07-29T01:15:18.269Z,102144.09
2022-07-29T01:17:52.732Z,102143.88
2022-07-29T01:20:31.581Z,102141.84
2022-07-29T01:23:08.467Z,102137.13
2022-07-29T01:25:45.316Z,102137.13
2022-07-29T01:28:31.485Z,102137.34
2022-07-29T01:31:01.534Z,102141.03
2022-07-29T01:33:49.499Z,102138.78
2022-07-29T01:36:40.217Z,102143.00
2022-07-29T01:39:19.896Z,102141.03
2022-07-29T01:42:16.989Z,102140.28
2022-07-29T01:44:52.236Z,102135.63
2022-07-29T01:47:21.738Z,102137.56
2022-07-29T01:49:52.106Z,102132.56
2022-07-29T01:52:32.151Z,102133.88
2022-07-29T01:55:00.400Z,102143.09
2022-07-29T01:57:29.500Z,102142.56
2022-07-29T01:59:58.220Z,102137.34
2022-07-29T02:02:25.794Z,102135.59
2022-07-29T02:04:53.552Z,102142.56
2022-07-29T02:07:22.300Z,102140.38
2022-07-29T02:09:51.538Z,102146.25
2022-07-29T02:12:20.454Z,102140.63
2022-07-29T02:14:52.613Z,102150.81
2022-07-29T02:17:26.045Z,102158.00
2022-07-29T02:19:56.450Z,102148.63
2022-07-29T02:22:25.187Z,102144.31
2022-07-29T02:24:52.766Z,102142.13
2022-07-29T02:27:20.981Z,102145.72
2022-07-29T02:29:50.004Z,102147.09
2022-07-29T02:32:18.331Z,102153.44
2022-07-29T02:34:46.081Z,102145.81
2022-07-29T02:37:13.966Z,102148.44
2022-07-29T02:39:43.328Z,102153.97
2022-07-29T02:42:12.899Z,102152.53
2022-07-29T02:44:40.449Z,102153.22
2022-07-29T02:47:41.292Z,102157.13
2022-07-29T02:50:23.699Z,102155.19
2022-07-29T02:52:58.457Z,102165.69
2022-07-29T02:55:38.146Z,102160.81
2022-07-29T02:58:16.793Z,102160.59
2022-07-29T03:00:45.839Z,102157.75
2022-07-29T03:03:14.264Z,102162.78
2022-07-29T03:05:41.619Z,102169.28
2022-07-29T03:08:11.522Z,102169.38
2022-07-29T03:10:40.526Z,102163.19
2022-07-29T03:13:08.954Z,102171.66
2022-07-29T03:15:36.988Z,102163.84
2022-07-29T03:18:04.860Z,102173.00
2022-07-29T03:20:32.317Z,102172.66
2022-07-29T03:22:59.628Z,102178.63
2022-07-29T03:25:28.303Z,102175.78
2022-07-29T03:27:55.753Z,102171.00
2022-07-29T03:30:23.656Z,102185.81
2022-07-29T03:32:52.274Z,102179.94
2022-07-29T03:35:20.982Z,102176.44
2022-07-29T03:37:48.456Z,102186.75
2022-07-29T03:40:19.283Z,102180.56
2022-07-29T03:42:46.962Z,102190.34
2022-07-29T03:45:16.584Z,102181.63
2022-07-29T03:47:51.162Z,102180.13
2022-07-29T03:50:22.017Z,102186.66
2022-07-29T03:52:49.401Z,102186.88
2022-07-29T03:55:17.134Z,102192.09
2022-07-29T03:57:45.597Z,102187.31
2022-07-29T04:00:13.247Z,102191.44
2022-07-29T04:02:41.086Z,102192.75
2022-07-29T04:05:13.105Z,102194.91
2022-07-29T04:07:40.785Z,102197.72
2022-07-29T04:10:08.913Z,102204.25
2022-07-29T04:12:36.270Z,102199.47
2022-07-29T04:15:05.006Z,102200.88
2022-07-29T04:17:32.280Z,102197.09
2022-07-29T04:19:59.638Z,102195.34
2022-07-29T04:22:26.905Z,102201.66
2022-07-29T04:24:54.708Z,102198.56
2022-07-29T04:27:21.962Z,102209.16
2022-07-29T04:29:56.596Z,102210.78
2022-07-29T04:32:25.465Z,102211.88
2022-07-29T04:34:52.881Z,102202.09
2022-07-29T04:37:20.349Z,102211.88
2022-07-29T04:39:47.592Z,102215.13
2022-07-29T04:42:14.909Z,102212.94
2022-07-29T04:44:44.625Z,102218.59
2022-07-29T04:47:13.199Z,102216.44
2022-07-29T04:49:40.554Z,102212.72
2022-07-29T04:52:08.070Z,102209.69
2022-07-29T04:54:36.466Z,102210.78
2022-07-29T04:57:03.798Z,102212.66
2022-07-29T04:59:31.061Z,102216.69
2022-07-29T05:01:58.411Z,102215.91
2022-07-29T05:04:25.831Z,102219.91
2022-07-29T05:06:53.140Z,102221.44
2022-07-29T05:09:20.437Z,102227.72
2022-07-29T05:11:47.759Z,102221.31
2022-07-29T05:14:15.321Z,102217.94
2022-07-29T05:16:43.148Z,102223.84
2022-07-29T05:19:14.178Z,102218.59
2022-07-29T05:21:41.989Z,102221.66
2022-07-29T05:24:09.382Z,102218.19
2022-07-29T05:26:36.657Z,102217.91
2022-07-29T05:29:04.199Z,102213.53
2022-07-29T05:31:31.681Z,102223.66
2022-07-29T05:33:58.985Z,102214.28
2022-07-29T05:36:26.306Z,102209.13
2022-07-29T05:38:53.587Z,102220.72
2022-07-29T05:41:21.105Z,102215.41
2022-07-29T05:43:48.390Z,102214.72
2022-07-29T05:46:16.268Z,102220.19
2022-07-29T05:48:43.622Z,102215.28
2022-07-29T05:51:11.225Z,102214.88
2022-07-29T05:53:38.726Z,102216.56
2022-07-29T05:56:06.521Z,102216.59
2022-07-29T05:58:34.132Z,102215.63
2022-07-29T06:01:01.651Z,102213.66
2022-07-29T06:03:29.258Z,102214.75
2022-07-29T06:05:56.574Z,102220.09
2022-07-29T06:08:24.536Z,102215.50
2022-07-29T06:10:51.841Z,102214.44
2022-07-29T06:13:19.151Z,102218.13
2022-07-29T06:15:46.540Z,102221.34
2022-07-29T06:18:14.424Z,102226.56
2022-07-29T06:20:42.252Z,102226.78
2022-07-29T06:23:10.953Z,102229.75
2022-07-29T06:25:38.737Z,102228.53
2022-07-29T06:28:06.082Z,102231.88
2022-07-29T06:30:33.712Z,102225.06
2022-07-29T06:33:02.438Z,102225.56
2022-07-29T06:35:38.626Z,102216.13
2022-07-29T06:38:12.068Z,102217.59
2022-07-29T06:41:03.749Z,102225.56
2022-07-29T06:43:33.172Z,102217.00
2022-07-29T06:46:04.524Z,102219.31
2022-07-29T06:48:32.221Z,102229.84
2022-07-29T06:51:00.524Z,102222.09
2022-07-29T06:53:28.912Z,102219.88
2022-07-29T06:55:56.230Z,102214.13
2022-07-29T06:58:23.664Z,102220.34
2022-07-29T07:00:57.009Z,102214.38
2022-07-29T07:03:24.958Z,102226.28
2022-07-29T07:05:52.974Z,102221.72
2022-07-29T07:08:20.564Z,102223.59
2022-07-29T07:10:47.856Z,102221.09
2022-07-29T07:13:18.155Z,102228.53
2022-07-29T07:15:46.482Z,102225.56
2022-07-29T07:18:13.793Z,102226.81
2022-07-29T07:20:41.373Z,102219.81
2022-07-29T07:23:08.654Z,102215.63
2022-07-29T07:25:36.075Z,102218.75
2022-07-29T07:28:03.523Z,102223.84
2022-07-29T07:30:30.917Z,102213.16
2022-07-29T07:32:58.193Z,102214.91
2022-07-29T07:35:25.502Z,102207.94
2022-07-29T07:37:52.757Z,102217.38
2022-07-29T07:40:20.157Z,102226.75
2022-07-29T07:42:47.401Z,102214.91
2022-07-29T07:45:16.271Z,102220.97
2022-07-29T07:47:44.143Z,102217.00
2022-07-29T07:50:18.079Z,102215.66
2022-07-29T07:52:51.117Z,102213.16
2022-07-29T07:55:18.745Z,102212.06
2022-07-29T07:57:46.620Z,102211.19
2022-07-29T08:00:16.034Z,102220.81
2022-07-29T08:02:44.194Z,102219.63
2022-07-29T08:05:13.026Z,102231.50
2022-07-29T08:07:40.532Z,102221.09
2022-07-29T08:10:08.056Z,102224.03
2022-07-29T08:12:35.351Z,102222.59
2022-07-29T08:15:02.621Z,102224.28
2022-07-29T08:17:30.216Z,102225.28
2022-07-29T08:20:03.719Z,102229.22
2022-07-29T08:22:30.937Z,102234.97
2022-07-29T08:24:58.302Z,102223.78
2022-07-29T08:27:42.984Z,102229.84
2022-07-29T08:30:11.577Z,102230.72
2022-07-29T08:32:55.440Z,102237.41
2022-07-29T08:35:24.077Z,102231.97
2022-07-29T08:37:51.684Z,102235.41
2022-07-29T08:40:19.171Z,102235.94
2022-07-29T08:42:46.467Z,102235.19
2022-07-29T08:45:13.933Z,102241.09
2022-07-29T08:47:41.237Z,102219.97
2022-07-29T08:50:09.800Z,102233.66
2022-07-29T08:52:38.462Z,102246.19
2022-07-29T08:55:06.785Z,102238.22
2022-07-29T08:57:34.884Z,102240.97
2022-07-29T09:00:08.108Z,102240.13
2022-07-29T09:02:46.929Z,102241.91
2022-07-29T09:05:15.893Z,102242.47
2022-07-29T09:07:44.904Z,102239.63
2022-07-29T09:10:12.625Z,102239.75
2022-07-29T09:12:40.850Z,102233.53
2022-07-29T09:15:08.426Z,102236.25
2022-07-29T09:17:42.763Z,102245.44
2022-07-29T09:20:11.801Z,102241.56
2022-07-29T09:22:42.091Z,102240.66
2022-07-29T09:25:12.679Z,102243.97
2022-07-29T09:27:40.133Z,102241.47
2022-07-29T09:30:11.596Z,102239.59
2022-07-29T09:32:59.580Z,102244.28
2022-07-29T09:35:27.559Z,102243.63
2022-07-29T09:37:55.264Z,102243.94
2022-07-29T09:40:23.999Z,102246.16
2022-07-29T09:42:52.036Z,102237.25
2022-07-29T09:45:29.695Z,102239.06
2022-07-29T09:48:00.120Z,102244.53
2022-07-29T09:50:54.947Z,102241.28
2022-07-29T09:53:33.732Z,102244.88
2022-07-29T09:56:08.411Z,102243.50
2022-07-29T09:58:37.116Z,102241.53
2022-07-29T10:01:05.038Z,102247.41
2022-07-29T10:03:32.583Z,102244.16
2022-07-29T10:06:10.350Z,102235.25
2022-07-29T10:08:38.488Z,102246.75
2022-07-29T10:11:13.516Z,102247.00
2022-07-29T10:13:41.819Z,102244.66
2022-07-29T10:16:09.416Z,102251.97
2022-07-29T10:18:39.329Z,102253.25
2022-07-29T10:21:06.893Z,102251.34
2022-07-29T10:23:46.392Z,102250.97
2022-07-29T10:26:15.733Z,102252.72
2022-07-29T10:28:42.985Z,102255.75
2022-07-29T10:31:14.886Z,102255.50
2022-07-29T10:33:54.509Z,102250.59
2022-07-29T10:36:25.276Z,102249.94
2022-07-29T10:39:11.465Z,102246.66
2022-07-29T10:42:01.816Z,102254.75
2022-07-29T10:44:31.529Z,102251.91
2022-07-29T10:46:59.952Z,102244.28
2022-07-29T10:49:30.609Z,102254.88
2022-07-29T10:52:08.288Z,102256.00
2022-07-29T10:54:48.579Z,102252.31
2022-07-29T10:57:26.011Z,102254.50
2022-07-29T11:00:11.121Z,102252.31
2022-07-29T11:02:43.960Z,102256.03
2022-07-29T11:05:13.804Z,102255.78
2022-07-29T11:08:00.970Z,102257.66
2022-07-29T11:10:31.318Z,102261.16
2022-07-29T11:12:59.447Z,102254.91
2022-07-29T11:15:28.554Z,102265.16
2022-07-29T11:17:59.553Z,102259.72
2022-07-29T11:20:35.015Z,102264.72
2022-07-29T11:23:27.774Z,102256.56
2022-07-29T11:26:23.004Z,102260.59
2022-07-29T11:28:50.836Z,102258.41
2022-07-29T11:31:38.274Z,102257.34
2022-07-29T11:34:28.078Z,102256.47
2022-07-29T11:37:15.087Z,102257.03
2022-07-29T11:39:45.411Z,102264.53
2022-07-29T11:42:32.681Z,102268.13
2022-07-29T11:45:09.044Z,102267.97
2022-07-29T11:47:54.958Z,102271.03
2022-07-29T11:50:29.882Z,102265.47
2022-07-29T11:52:57.764Z,102266.41
2022-07-29T11:55:32.299Z,102262.97
2022-07-29T11:58:03.526Z,102263.38
2022-07-29T12:00:43.175Z,102260.34
2022-07-29T12:03:12.115Z,102259.69
2022-07-29T12:05:48.200Z,102257.34
2022-07-29T12:08:20.925Z,102262.97
2022-07-29T12:10:49.460Z,102264.16
2022-07-29T12:13:17.948Z,102259.84
2022-07-29T12:16:00.064Z,102254.22
2022-07-29T12:18:27.969Z,102255.97
2022-07-29T12:20:59.433Z,102263.06
2022-07-29T12:23:34.661Z,102258.72
2022-07-29T12:26:07.428Z,102259.41
2022-07-29T12:28:38.990Z,102251.44
2022-07-29T12:31:06.722Z,102250.94
2022-07-29T12:33:36.191Z,102247.91
2022-07-29T12:36:10.378Z,102250.22
2022-07-29T12:38:41.697Z,102238.75
2022-07-29T12:41:08.966Z,102247.19
2022-07-29T12:43:36.387Z,102250.00
2022-07-29T12:46:16.169Z,102246.47
2022-07-29T12:48:44.699Z,102243.03
2022-07-29T12:51:15.395Z,102240.50
2022-07-29T12:54:02.580Z,102242.53
2022-07-29T12:56:45.790Z,102232.63
2022-07-29T12:59:18.695Z,102228.50
2022-07-29T13:01:49.626Z,102229.94
2022-07-29T13:04:46.234Z,102228.66
2022-07-29T13:07:15.335Z,102233.63
2022-07-29T13:09:44.197Z,102227.31
2022-07-29T13:12:12.624Z,102230.13
2022-07-29T13:14:41.514Z,102225.53
2022-07-29T13:17:14.887Z,102223.00
2022-07-29T13:19:49.477Z,102232.03
2022-07-29T13:22:21.169Z,102231.22
2022-07-29T13:24:51.569Z,102229.22
2022-07-29T13:27:20.363Z,102228.38
2022-07-29T13:29:47.879Z,102229.47
2022-07-29T13:32:15.253Z,102228.63
2022-07-29T13:34:42.561Z,102228.38
2022-07-29T13:37:09.934Z,102222.09
2022-07-29T13:39:38.446Z,102225.34
2022-07-29T13:42:10.525Z,102226.00
2022-07-29T13:44:38.384Z,102217.31
2022-07-29T13:47:05.810Z,102214.16
2022-07-29T13:49:33.093Z,102212.09
2022-07-29T13:52:00.948Z,102209.03
2022-07-29T13:54:28.565Z,102203.63
2022-07-29T13:56:55.853Z,102200.03
2022-07-29T13:59:23.151Z,102196.88
2022-07-29T14:01:50.489Z,102203.63
2022-07-29T14:04:17.930Z,102196.69
2022-07-29T14:06:45.253Z,102191.06
2022-07-29T14:09:12.745Z,102195.84
2022-07-29T14:11:40.758Z,102195.84
2022-07-29T14:14:08.301Z,102185.78
2022-07-29T14:16:39.156Z,102199.72
2022-07-29T14:19:09.744Z,102191.22
2022-07-29T14:21:36.998Z,102196.44
2022-07-29T14:24:17.885Z,102191.44
2022-07-29T14:26:49.242Z,102192.97
2022-07-29T14:29:16.521Z,102194.94
2022-07-29T14:31:44.870Z,102188.16
2022-07-29T14:34:12.218Z,102199.25
2022-07-29T14:36:39.601Z,102197.16
2022-07-29T14:39:06.800Z,102194.38
2022-07-29T14:41:36.284Z,102189.66
2022-07-29T14:44:03.762Z,102191.06
2022-07-29T14:46:31.044Z,102189.84
2022-07-29T14:48:58.545Z,102186.03
2022-07-29T14:51:25.830Z,102190.75
2022-07-29T14:54:00.135Z,102184.88
2022-07-29T14:56:36.961Z,102187.44
2022-07-29T14:59:05.161Z,102184.41
2022-07-29T15:01:32.420Z,102180.50
2022-07-29T15:04:00.036Z,102184.41
2022-07-29T15:06:27.608Z,102183.81
2022-07-29T15:08:55.062Z,102190.13
2022-07-29T15:11:22.301Z,102186.78
2022-07-29T15:13:49.651Z,102186.78
2022-07-29T15:16:17.645Z,102190.31
2022-07-29T15:18:45.037Z,102188.53
2022-07-29T15:21:12.684Z,102184.63
2022-07-29T15:23:40.101Z,102196.75
2022-07-29T15:26:07.327Z,102184.47
2022-07-29T15:28:34.737Z,102193.94
2022-07-29T15:31:01.976Z,102189.25
2022-07-29T15:33:29.307Z,102196.44
2022-07-29T15:35:57.202Z,102180.94
2022-07-29T15:38:28.566Z,102186.03
2022-07-29T15:40:56.993Z,102185.19
2022-07-29T15:43:24.290Z,102182.88
2022-07-29T15:46:12.343Z,102184.47
2022-07-29T15:48:40.548Z,102184.63
2022-07-29T15:51:07.884Z,102173.72
2022-07-29T15:53:35.442Z,102181.00
2022-07-29T15:56:03.034Z,102172.19
2022-07-29T15:58:31.102Z,102169.47
2022-07-29T16:00:58.953Z,102172.53
2022-07-29T16:03:26.368Z,102167.16
2022-07-29T16:05:53.883Z,102162.16
2022-07-29T16:08:21.324Z,102152.94
2022-07-29T16:10:48.677Z,102159.81
2022-07-29T16:13:17.002Z,102154.59
2022-07-29T16:15:46.519Z,102154.06
2022-07-29T16:18:30.655Z,102142.47
2022-07-29T16:20:58.104Z,102146.16
2022-07-29T16:23:25.584Z,102147.50
2022-07-29T16:26:01.192Z,102133.53
2022-07-29T16:28:30.112Z,102139.91
2022-07-29T16:30:57.844Z,102141.19
2022-07-29T16:33:25.206Z,102144.03
2022-07-29T16:35:52.781Z,102140.13
2022-07-29T16:38:20.249Z,102142.94
2022-07-29T16:40:47.525Z,102142.28
2022-07-29T16:43:15.051Z,102147.50
2022-07-29T16:45:46.500Z,102148.13
2022-07-29T16:48:14.457Z,102139.63
2022-07-29T16:50:43.328Z,102138.38
2022-07-29T16:53:11.145Z,102150.53
2022-07-29T16:55:38.564Z,102136.63
2022-07-29T16:58:09.982Z,102146.81
2022-07-29T17:00:37.341Z,102140.41
2022-07-29T17:03:05.602Z,102137.63
2022-07-29T17:05:52.352Z,102127.22
2022-07-29T17:08:20.533Z,102121.69
2022-07-29T17:10:47.896Z,102126.81
2022-07-29T17:13:15.206Z,102128.88
2022-07-29T17:15:45.326Z,102136.44
2022-07-29T17:18:13.241Z,102128.78
2022-07-29T17:20:41.185Z,102122.94
2022-07-29T17:23:08.561Z,102130.53
2022-07-29T17:25:35.878Z,102128.34
2022-07-29T17:28:03.413Z,102127.91
2022-07-29T17:30:30.989Z,102113.53
2022-07-29T17:32:58.284Z,102126.31
2022-07-29T17:35:44.088Z,102124.03
2022-07-29T17:38:11.693Z,102121.19
2022-07-29T17:40:38.965Z,102120.75
2022-07-29T17:43:09.330Z,102124.31
2022-07-29T17:45:49.436Z,102124.66
2022-07-29T17:48:18.988Z,102133.34
2022-07-29T17:50:46.753Z,102123.59
2022-07-29T17:53:16.013Z,102126.63
2022-07-29T17:55:45.808Z,102128.00
2022-07-29T17:58:13.307Z,102126.34
2022-07-29T18:00:40.701Z,102127.44
2022-07-29T18:03:08.523Z,102131.78
2022-07-29T18:05:35.811Z,102139.06
2022-07-29T18:08:03.167Z,102130.75
2022-07-29T18:10:30.688Z,102133.53
2022-07-29T18:12:58.172Z,102131.97
2022-07-29T18:15:25.477Z,102138.00
2022-07-29T18:17:57.630Z,102130.66
2022-07-29T18:20:28.100Z,102129.53
2022-07-29T18:22:55.471Z,102129.03
2022-07-29T18:25:23.740Z,102127.63
2022-07-29T18:27:51.493Z,102139.81
2022-07-29T18:30:20.139Z,102130.53
2022-07-29T18:33:11.363Z,102126.00
2022-07-29T18:35:36.992Z,102134.91
2022-07-29T18:38:06.063Z,102135.56
2022-07-29T18:40:33.409Z,102142.28
2022-07-29T18:43:00.734Z,102139.03
2022-07-29T18:45:28.774Z,102139.03
2022-07-29T18:47:57.037Z,102136.34
2022-07-29T18:50:28.889Z,102132.94
2022-07-29T18:52:58.908Z,102138.41
2022-07-29T18:55:26.589Z,102152.34
2022-07-29T18:57:56.636Z,102148.19
2022-07-29T19:00:25.750Z,102146.25
2022-07-29T19:02:53.247Z,102148.19
2022-07-29T19:05:21.507Z,102154.91
2022-07-29T19:07:48.997Z,102153.44
2022-07-29T19:10:16.698Z,102158.88
2022-07-29T19:12:44.330Z,102152.13
2022-07-29T19:15:11.870Z,102154.75
2022-07-29T19:17:39.159Z,102149.28
2022-07-29T19:20:07.509Z,102146.44
2022-07-29T19:22:34.937Z,102152.34
2022-07-29T19:25:02.239Z,102156.03
2022-07-29T19:27:29.500Z,102164.03
2022-07-29T19:29:59.424Z,102156.44
2022-07-29T19:32:26.933Z,102146.84
2022-07-29T19:35:12.605Z,102152.06
2022-07-29T19:37:40.141Z,102157.13
2022-07-29T19:40:07.573Z,102161.03
2022-07-29T19:42:35.099Z,102159.66
2022-07-29T19:45:02.328Z,102150.09
2022-07-29T19:47:29.803Z,102155.53
2022-07-29T19:49:57.099Z,102161.38
2022-07-29T19:52:24.397Z,102166.56
2022-07-29T19:54:51.722Z,102164.25
2022-07-29T19:57:19.275Z,102156.16
2022-07-29T19:59:46.494Z,102164.03
2022-07-29T20:02:13.909Z,102160.91
2022-07-29T20:04:42.891Z,102157.28
2022-07-29T20:07:10.197Z,102161.19
2022-07-29T20:09:40.103Z,102159.25
2022-07-29T20:12:11.115Z,102161.50
2022-07-29T20:14:38.585Z,102162.47
2022-07-29T20:17:06.106Z,102156.50
2022-07-29T20:19:33.722Z,102157.69
2022-07-29T20:22:01.014Z,102154.19
2022-07-29T20:24:28.377Z,102151.78
2022-07-29T20:26:55.693Z,102156.56
2022-07-29T20:29:23.192Z,102158.38
2022-07-29T20:31:53.306Z,102149.19
2022-07-29T20:34:23.732Z,102160.06
2022-07-29T20:36:50.987Z,102156.16
2022-07-29T20:39:18.364Z,102150.94
2022-07-29T20:41:45.749Z,102157.22
2022-07-29T20:44:13.297Z,102154.41
2022-07-29T20:46:40.928Z,102156.34
2022-07-29T20:49:09.022Z,102161.16
2022-07-29T20:51:43.852Z,102159.56
2022-07-29T20:54:12.151Z,102151.91
2022-07-29T20:56:39.677Z,102155.41
2022-07-29T20:59:07.791Z,102152.19
2022-07-29T21:01:35.745Z,102163.34
2022-07-29T21:04:03.635Z,102164.31
2022-07-29T21:06:31.273Z,102166.81
2022-07-29T21:08:59.846Z,102169.28
2022-07-29T21:11:43.219Z,102166.19
2022-07-29T21:14:38.317Z,102160.66
2022-07-29T21:17:07.312Z,102161.09
2022-07-29T21:19:34.931Z,102155.91
2022-07-29T21:22:02.854Z,102164.81
2022-07-29T21:24:30.112Z,102158.88
2022-07-29T21:27:21.707Z,102166.31
2022-07-29T21:29:49.737Z,102161.78
2022-07-29T21:32:27.677Z,102157.84
2022-07-29T21:34:58.174Z,102160.13
2022-07-29T21:37:25.448Z,102158.78
2022-07-29T21:39:52.765Z,102159.06
2022-07-29T21:42:19.979Z,102166.00
2022-07-29T21:44:47.443Z,102161.56
2022-07-29T21:47:14.691Z,102163.00
2022-07-29T21:49:42.259Z,102164.66
2022-07-29T21:52:09.581Z,102163.88
2022-07-29T21:54:36.995Z,102165.13
2022-07-29T21:57:05.000Z,102161.72
2022-07-29T21:59:32.823Z,102158.69
2022-07-29T22:02:03.560Z,102164.16
2022-07-29T22:04:31.283Z,102170.38
2022-07-29T22:06:58.993Z,102164.94
2022-07-29T22:09:26.649Z,102167.91
2022-07-29T22:11:54.886Z,102168.63
2022-07-29T22:14:22.457Z,102169.00
2022-07-29T22:16:49.955Z,102169.53
2022-07-29T22:19:17.439Z,102166.00
2022-07-29T22:21:44.901Z,102163.28
2022-07-29T22:24:12.275Z,102167.19
2022-07-29T22:26:39.606Z,102175.16
2022-07-29T22:29:06.937Z,102162.31
2022-07-29T22:31:34.211Z,102157.59
2022-07-29T22:34:01.565Z,102159.03
2022-07-29T22:36:28.856Z,102166.41
2022-07-29T22:38:56.243Z,102157.63
2022-07-29T22:41:23.486Z,102157.56
2022-07-29T22:43:50.841Z,102161.97
2022-07-29T22:46:18.166Z,102159.28
2022-07-29T22:48:45.698Z,102158.25
2022-07-29T22:51:14.168Z,102163.25
2022-07-29T22:53:41.512Z,102158.09
2022-07-29T22:56:08.727Z,102158.06
2022-07-29T22:58:36.409Z,102150.16
2022-07-29T23:01:03.681Z,102151.63
2022-07-29T23:03:31.048Z,102150.41
2022-07-29T23:05:58.430Z,102146.50
2022-07-29T23:08:25.760Z,102144.34
2022-07-29T23:10:53.021Z,102147.19
2022-07-29T23:13:20.458Z,102139.75
2022-07-29T23:15:48.038Z,102140.75
2022-07-29T23:18:15.478Z,102139.78
2022-07-29T23:20:43.927Z,102145.25
2022-07-29T23:23:11.321Z,102139.16
2022-07-29T23:25:38.554Z,102134.09
2022-07-29T23:28:11.683Z,102133.84
2022-07-29T23:30:43.541Z,102137.06
2022-07-29T23:33:10.976Z,102131.72
2022-07-29T23:35:38.221Z,102135.34
2022-07-29T23:38:05.542Z,102131.88
2022-07-29T23:40:32.938Z,102125.03
2022-07-29T23:43:00.245Z,102129.16
2022-07-29T23:45:40.043Z,102124.69
2022-07-29T23:48:12.034Z,102130.63
2022-07-29T23:50:39.268Z,102140.91
2022-07-29T23:53:06.528Z,102138.81
2022-07-29T23:55:37.879Z,102140.31
2022-07-29T23:58:06.518Z,102141.44
